createdAt,value
2023-01-19T00:00:12.552Z,92.8
2023-01-19T00:05:12.809Z,92.6
2023-01-19T00:10:12.522Z,92.7
2023-01-19T00:15:12.525Z,92.9
2023-01-19T00:20:12.523Z,92.6
2023-01-19T00:25:12.530Z,93
2023-01-19T00:30:12.535Z,93.3
2023-01-19T00:35:12.525Z,93.4
2023-01-19T00:40:12.533Z,93.4
2023-01-19T00:45:12.515Z,93.2
2023-01-19T00:50:12.511Z,93.6
2023-01-19T00:55:12.520Z,93.3
2023-01-19T01:00:12.511Z,93.5
2023-01-19T01:05:12.506Z,94
2023-01-19T01:10:12.527Z,94.4
2023-01-19T01:15:12.493Z,94.2
2023-01-19T01:20:12.518Z,94.4
2023-01-19T01:25:12.489Z,94.1
2023-01-19T01:30:12.528Z,94.4
2023-01-19T01:35:12.493Z,94.5
2023-01-19T01:40:12.493Z,94.6
2023-01-19T01:45:12.492Z,94.7
2023-01-19T01:50:12.526Z,94.8
2023-01-19T01:55:12.656Z,94.9
2023-01-19T02:00:12.526Z,94.9
2023-01-19T02:05:12.508Z,95.2
2023-01-19T02:10:12.500Z,95.4
2023-01-19T02:15:12.505Z,95.6
2023-01-19T02:20:12.502Z,95.5
2023-01-19T02:25:12.487Z,95.7
2023-01-19T02:30:12.487Z,95.8
2023-01-19T02:35:12.492Z,95.5
2023-01-19T02:40:12.529Z,94.9
2023-01-19T02:45:12.482Z,93.6
2023-01-19T02:50:12.486Z,92.8
2023-01-19T02:55:12.482Z,93.3
2023-01-19T03:00:12.515Z,93.3
2023-01-19T03:05:12.513Z,93.5
2023-01-19T03:10:12.503Z,94.1
2023-01-19T03:15:12.471Z,94.3
2023-01-19T03:20:12.485Z,94.5
2023-01-19T03:25:12.482Z,94.2
2023-01-19T03:30:12.493Z,94.6
2023-01-19T03:35:12.479Z,94.7
2023-01-19T03:40:12.496Z,95.2
2023-01-19T03:45:12.493Z,95.7
2023-01-19T03:50:12.482Z,96.1
2023-01-19T03:55:12.484Z,96.3
2023-01-19T04:00:12.484Z,96.2
2023-01-19T04:05:12.506Z,95.7
2023-01-19T04:10:12.465Z,95.7
2023-01-19T04:15:12.471Z,95.7
2023-01-19T04:20:12.498Z,96
2023-01-19T04:25:12.472Z,95.8
2023-01-19T04:30:12.517Z,95.6
2023-01-19T04:35:12.483Z,95.6
2023-01-19T04:40:12.489Z,95.5
2023-01-19T04:45:12.483Z,95.3
2023-01-19T04:50:12.474Z,95.1
2023-01-19T04:55:12.468Z,95.3
2023-01-19T05:00:12.479Z,95.5
2023-01-19T05:05:12.473Z,95.5
2023-01-19T05:10:12.489Z,95.7
2023-01-19T05:15:12.480Z,95.9
2023-01-19T05:20:14.368Z,95.5
2023-01-19T05:25:12.510Z,95.7
2023-01-19T05:30:12.482Z,95.9
2023-01-19T05:35:12.460Z,95.6
2023-01-19T05:40:12.460Z,95.4
2023-01-19T05:45:12.487Z,95.5
2023-01-19T05:50:12.457Z,95.4
2023-01-19T05:55:12.491Z,95.3
2023-01-19T06:00:12.623Z,95.2
2023-01-19T06:05:12.465Z,95.3
2023-01-19T06:15:12.483Z,94.7
2023-01-19T06:20:12.455Z,94.4
2023-01-19T06:25:12.467Z,94.1
2023-01-19T06:40:13.688Z,93.6
2023-01-19T06:50:12.464Z,93.7
2023-01-19T07:00:12.481Z,93
2023-01-19T07:05:12.452Z,93.1
2023-01-19T07:15:12.445Z,92.9
2023-01-19T07:20:12.439Z,92.6
2023-01-19T07:25:12.442Z,93
2023-01-19T07:30:12.468Z,93
2023-01-19T07:35:12.469Z,93
2023-01-19T07:40:12.457Z,92.5
2023-01-19T07:45:12.449Z,92.5
2023-01-19T07:50:12.514Z,92.4
2023-01-19T07:55:12.429Z,91.7
2023-01-19T08:00:12.441Z,91.6
2023-01-19T08:05:12.456Z,91.5
2023-01-19T08:10:12.475Z,91.3
2023-01-19T08:15:12.456Z,91.7
2023-01-19T08:20:12.462Z,91.5
2023-01-19T08:25:12.434Z,91.5
2023-01-19T08:30:12.461Z,91.1
2023-01-19T08:35:12.441Z,90.9
2023-01-19T08:40:12.437Z,90.7
2023-01-19T08:45:12.429Z,90.1
2023-01-19T08:50:12.434Z,89.6
2023-01-19T08:55:12.423Z,89.1
2023-01-19T09:00:12.448Z,88.8
2023-01-19T09:05:12.450Z,88.4
2023-01-19T09:10:12.435Z,88.1
2023-01-19T09:15:12.446Z,87.3
2023-01-19T09:20:12.422Z,87
2023-01-19T09:25:12.425Z,85.7
2023-01-19T09:30:12.429Z,86
2023-01-19T09:35:12.452Z,85.5
2023-01-19T09:40:12.440Z,85.1
2023-01-19T09:45:12.456Z,83.9
2023-01-19T09:50:12.408Z,84.2
2023-01-19T09:55:12.445Z,83.2
2023-01-19T10:00:12.418Z,81.7
2023-01-19T10:05:12.430Z,80.9
2023-01-19T10:10:12.415Z,80.7
2023-01-19T10:15:12.407Z,80.6
2023-01-19T10:20:12.495Z,79.4
2023-01-19T10:25:12.391Z,78.9
2023-01-19T10:30:12.450Z,79.6
2023-01-19T10:35:12.429Z,79
2023-01-19T10:40:12.399Z,79
2023-01-19T10:45:12.401Z,78
2023-01-19T10:50:12.405Z,77.5
2023-01-19T10:55:12.399Z,76.9
2023-01-19T11:00:12.443Z,76.9
2023-01-19T11:05:12.381Z,75.1
2023-01-19T11:10:12.380Z,75.3
2023-01-19T11:15:12.390Z,75.3
2023-01-19T11:20:12.390Z,74.9
2023-01-19T11:25:12.395Z,75.3
2023-01-19T11:30:12.373Z,74.9
2023-01-19T11:35:12.467Z,75.2
2023-01-19T11:40:14.306Z,75.1
2023-01-19T11:45:12.395Z,74.1
2023-01-19T11:50:12.378Z,74.6
2023-01-19T12:00:12.380Z,74.6
2023-01-19T12:05:12.377Z,74.2
2023-01-19T12:10:12.357Z,73.7
2023-01-19T12:15:12.375Z,72.8
2023-01-19T12:20:12.367Z,72.3
2023-01-19T12:25:12.351Z,73.7
2023-01-19T12:30:12.353Z,72.3
2023-01-19T12:35:12.342Z,71.7
2023-01-19T12:40:12.358Z,72.2
2023-01-19T12:45:12.345Z,72.6
2023-01-19T12:50:12.356Z,74.1
2023-01-19T12:55:12.353Z,73.8
2023-01-19T13:00:12.361Z,72.5
2023-01-19T13:05:12.362Z,73
2023-01-19T13:10:12.357Z,73.9
2023-01-19T13:15:12.334Z,74.6
2023-01-19T13:20:12.344Z,74.5
2023-01-19T13:25:12.335Z,73.1
2023-01-19T13:30:12.381Z,73.6
2023-01-19T13:35:12.368Z,72.9
2023-01-19T13:40:12.340Z,73.3
2023-01-19T13:45:12.328Z,73.6
2023-01-19T13:50:12.317Z,73.5
2023-01-19T13:55:12.345Z,72.8
2023-01-19T14:00:12.706Z,74.3
2023-01-19T14:05:12.431Z,73.6
2023-01-19T14:10:12.328Z,73.9
2023-01-19T14:15:12.312Z,74.2
2023-01-19T14:20:12.311Z,73.5
2023-01-19T14:25:12.304Z,73.9
2023-01-19T14:30:12.300Z,74.5
2023-01-19T14:35:12.303Z,74.2
2023-01-19T14:40:12.277Z,73.8
2023-01-19T14:45:12.296Z,74.2
2023-01-19T14:50:12.324Z,74.3
2023-01-19T14:55:12.285Z,75.2
2023-01-19T15:00:12.318Z,74.7
2023-01-19T15:05:12.293Z,74.5
2023-01-19T15:10:12.273Z,74.9
2023-01-19T15:15:12.287Z,75.5
2023-01-19T15:20:12.279Z,75.1
2023-01-19T15:25:12.291Z,75.6
2023-01-19T15:30:12.284Z,76.3
2023-01-19T15:35:12.314Z,76.4
2023-01-19T15:40:12.257Z,76.3
2023-01-19T15:45:12.281Z,76.8
2023-01-19T15:50:12.283Z,77.3
2023-01-19T15:55:12.268Z,77.5
2023-01-19T16:00:12.258Z,77.5
2023-01-19T16:05:12.654Z,77.7
2023-01-19T16:10:12.389Z,77.5
2023-01-19T16:15:12.258Z,78.1
2023-01-19T16:20:14.539Z,78.3
2023-01-19T16:25:12.261Z,78.2
2023-01-19T16:30:12.569Z,78.2
2023-01-19T16:35:12.274Z,78.8
2023-01-19T16:40:12.468Z,79.6
2023-01-19T16:45:12.255Z,79.9
2023-01-19T16:50:12.562Z,80.1
2023-01-19T16:55:12.250Z,79.8
2023-01-19T17:00:12.556Z,79.8
2023-01-19T17:05:12.539Z,80.3
2023-01-19T17:10:12.622Z,80.2
2023-01-19T17:15:12.237Z,80.3
2023-01-19T17:25:12.256Z,80.4
2023-01-19T17:30:12.431Z,80.1
2023-01-19T17:35:12.231Z,80.9
2023-01-19T17:40:12.502Z,80.6
2023-01-19T17:45:12.259Z,81
2023-01-19T17:50:12.598Z,80.8
2023-01-19T17:55:12.225Z,81.2
2023-01-19T18:00:12.443Z,81.4
2023-01-19T18:05:12.223Z,81.6
2023-01-19T18:10:12.478Z,82
2023-01-19T18:15:12.239Z,82.4
2023-01-19T18:20:12.507Z,83.7
2023-01-19T18:25:12.223Z,84
2023-01-19T18:30:12.506Z,83.7
2023-01-19T18:35:12.245Z,84.3
2023-01-19T18:40:12.490Z,84.8
2023-01-19T18:45:12.222Z,85
2023-01-19T18:50:12.526Z,84.9
2023-01-19T18:55:12.245Z,85.8
2023-01-19T19:00:12.459Z,86.5
2023-01-19T19:05:12.222Z,87.2
2023-01-19T19:10:12.513Z,86.5
2023-01-19T19:15:12.217Z,86.6
2023-01-19T19:20:12.599Z,86.6
2023-01-19T19:25:12.206Z,86.6
2023-01-19T19:30:12.642Z,86.5
2023-01-19T19:35:12.575Z,86.8
2023-01-19T19:40:12.516Z,87.1
2023-01-19T19:45:12.227Z,86.6
2023-01-19T19:50:12.512Z,86.5
2023-01-19T19:55:12.221Z,86.6
2023-01-19T20:00:12.559Z,86
2023-01-19T20:05:12.210Z,86.1
2023-01-19T20:10:12.541Z,86.1
2023-01-19T20:15:12.220Z,86.4
2023-01-19T20:20:12.451Z,87.2
2023-01-19T20:25:12.210Z,88
2023-01-19T20:30:12.388Z,88.8
2023-01-19T20:35:12.573Z,89.2
2023-01-19T20:40:12.196Z,89.6
2023-01-19T20:45:12.372Z,89.6
2023-01-19T20:50:12.187Z,89.9
2023-01-19T20:55:12.564Z,90.2
2023-01-19T21:10:12.210Z,91.6
2023-01-19T21:20:12.191Z,92.7
2023-01-19T21:25:12.536Z,93.2
2023-01-19T21:30:12.179Z,93.4
2023-01-19T21:40:12.194Z,94.4
2023-01-19T21:45:12.592Z,93.8
2023-01-19T21:50:12.198Z,93.6
2023-01-19T21:55:12.520Z,93.7
2023-01-19T22:00:12.202Z,93.6
2023-01-19T22:05:12.542Z,93.6
2023-01-19T22:10:12.206Z,93.9
2023-01-19T22:15:12.518Z,94.2
2023-01-19T22:20:12.216Z,93.8
2023-01-19T22:25:12.574Z,94
2023-01-19T22:30:12.210Z,94.3
2023-01-19T22:35:12.564Z,94.5
2023-01-19T22:40:12.215Z,94.1
2023-01-19T22:45:12.564Z,94.4
2023-01-19T22:50:12.232Z,94.2
2023-01-19T22:55:12.553Z,93.7
2023-01-19T23:00:12.196Z,93.2
2023-01-19T23:05:12.656Z,92.7
2023-01-19T23:10:12.217Z,92.8
2023-01-19T23:15:12.408Z,92.5
2023-01-19T23:20:12.198Z,92.3
2023-01-19T23:25:12.427Z,92.4
2023-01-19T23:30:12.197Z,92.6
2023-01-19T23:35:12.425Z,92.2
2023-01-19T23:40:12.221Z,92.5
2023-01-19T23:45:12.491Z,92.5
2023-01-19T23:50:12.218Z,92.2
2023-01-19T23:55:12.476Z,91.7
